Time;durP1;ratioP1;P1;durP2;ratioP2;P2;SDS_P1;SDS_P2;PMS_P1;PMS_P2;Temp;Humidity;BMP_temperature;BMP_pressure;BME280_temperature;BME280_humidity;BME280_pressure;Samples;Min_cycle;Max_cycle;Signal;HPM_P1;HPM_P2
2024/03/28 00:02:11;;;;;;;3.30;2.55;;;;;;;4.07;95.17;96500.16;4929462;29;20059;-65
2024/03/28 00:04:37;;;;;;;9.32;3.08;;;;;;;4.12;95.12;96490.72;4933255;29;20051;-65
2024/03/28 00:07:04;;;;;;;8.43;2.83;;;;;;;4.14;95.39;96500.09;4927589;29;20051;-65
2024/03/28 00:09:31;;;;;;;3.50;2.03;;;;;;;4.16;95.18;96497.72;4927345;29;20051;-65
2024/03/28 00:11:57;;;;;;;6.30;2.83;;;;;;;4.17;95.24;96504.75;4948747;29;20047;-64
2024/03/28 00:14:26;;;;;;;9.55;3.38;;;;;;;4.19;95.28;96499.66;4920850;29;20117;-64
2024/03/28 00:16:52;;;;;;;4.85;2.75;;;;;;;4.21;95.07;96502.75;4922173;29;20059;-65
2024/03/28 00:19:19;;;;;;;6.60;2.65;;;;;;;4.25;95.53;96499.97;4933351;29;20056;-65
2024/03/28 00:21:46;;;;;;;4.30;2.40;;;;;;;4.30;95.28;96496.78;4913590;29;20348;-65
2024/03/28 00:24:12;;;;;;;5.15;2.70;;;;;;;4.29;95.52;96493.28;4916437;29;20067;-65
2024/03/28 00:26:39;;;;;;;5.45;2.28;;;;;;;4.35;95.54;96495.56;4927363;29;20050;-65
2024/03/28 00:29:05;;;;;;;4.97;2.13;;;;;;;4.38;95.61;96492.81;4918120;29;20058;-64
2024/03/28 00:31:32;;;;;;;10.80;2.25;;;;;;;4.41;95.32;96492.00;4922978;29;20059;-64
2024/03/28 00:33:58;;;;;;;11.48;2.47;;;;;;;4.44;95.25;96491.19;4931758;29;20036;-65
2024/03/28 00:36:25;;;;;;;8.70;2.92;;;;;;;4.46;95.51;96483.31;4932301;29;20059;-66
2024/03/28 00:38:52;;;;;;;11.10;3.58;;;;;;;4.50;95.60;96486.78;4933049;29;20050;-64
2024/03/28 00:41:19;;;;;;;9.10;3.17;;;;;;;4.53;95.45;96482.44;4933048;29;20047;-65
2024/03/28 00:43:45;;;;;;;5.78;1.45;;;;;;;4.57;95.62;96469.50;4932541;29;20059;-64
2024/03/28 00:46:12;;;;;;;10.75;1.77;;;;;;;4.60;95.94;96476.91;4916162;29;20485;-65
2024/03/28 00:48:38;;;;;;;7.18;1.05;;;;;;;4.64;95.71;96472.16;4931370;29;20050;-64
2024/03/28 00:51:05;;;;;;;5.00;0.77;;;;;;;4.69;95.68;96463.47;4931868;29;20054;-65
2024/03/28 00:53:31;;;;;;;9.82;2.70;;;;;;;4.74;95.81;96463.81;4932037;29;20051;-66
2024/03/28 00:56:01;;;;;;;8.70;1.08;;;;;;;4.80;95.79;96458.66;4931571;29;20058;-64
2024/03/28 00:58:27;;;;;;;8.35;1.67;;;;;;;4.85;95.84;96463.66;4915600;28;20035;-65
2024/03/28 01:00:53;;;;;;;12.77;1.27;;;;;;;4.88;95.65;96454.63;4935903;29;20067;-65
2024/03/28 01:03:19;;;;;;;5.30;0.82;;;;;;;4.92;95.63;96455.38;4930628;29;20059;-65
2024/03/28 01:05:46;;;;;;;5.40;0.70;;;;;;;4.96;95.65;96453.34;4932120;29;20039;-64
2024/03/28 01:08:12;;;;;;;3.58;0.90;;;;;;;5.00;95.43;96451.34;4930883;29;20051;-66
2024/03/28 01:10:38;;;;;;;4.78;0.95;;;;;;;5.05;95.42;96453.63;4938590;29;20055;-65
2024/03/28 01:13:05;;;;;;;7.53;0.90;;;;;;;5.08;95.26;96441.06;4930354;29;20039;-64
2024/03/28 01:15:34;;;;;;;3.00;1.10;;;;;;;5.10;95.53;96447.66;4930642;29;20066;-68
2024/03/28 01:18:00;;;;;;;10.70;1.00;;;;;;;5.13;95.23;96452.34;4931012;28;20070;-64
2024/03/28 01:20:26;;;;;;;9.95;1.10;;;;;;;5.15;95.19;96447.22;4914643;29;20043;-64
2024/03/28 01:22:53;;;;;;;6.00;1.60;;;;;;;5.16;95.19;96442.50;4930722;29;20521;-64
2024/03/28 01:25:19;;;;;;;7.53;0.98;;;;;;;5.18;94.90;96431.91;4931331;29;20047;-65
2024/03/28 01:27:46;;;;;;;2.83;0.68;;;;;;;5.19;95.03;96436.19;4931256;29;20047;-64
2024/03/28 01:30:13;;;;;;;5.22;0.80;;;;;;;5.20;94.90;96441.25;4930149;29;20047;-65
2024/03/28 01:32:43;;;;;;;7.10;0.88;;;;;;;5.22;95.14;96433.38;4930382;28;20050;-65
2024/03/28 01:35:09;;;;;;;4.78;1.00;;;;;;;5.26;94.96;96436.88;4931278;29;20059;-64
2024/03/28 01:37:35;;;;;;;9.45;1.45;;;;;;;5.28;94.96;96439.19;4927077;29;20070;-64
2024/03/28 01:40:03;;;;;;;12.95;1.40;;;;;;;5.28;95.13;96433.69;4922432;29;20051;-65
2024/03/28 01:42:29;;;;;;;2.97;1.05;;;;;;;5.26;95.22;96431.38;4930836;29;20548;-64
2024/03/28 01:44:55;;;;;;;6.40;1.00;;;;;;;5.26;95.15;96425.13;4930608;29;20429;-64
2024/03/28 01:47:22;;;;;;;8.77;2.83;;;;;;;5.25;95.39;96421.59;4930189;29;20062;-66
2024/03/28 01:49:50;;;;;;;9.43;1.40;;;;;;;5.23;95.14;96415.75;4929626;29;20059;-64
2024/03/28 01:52:16;;;;;;;2.97;1.13;;;;;;;5.23;95.29;96409.50;4942714;29;20051;-64
2024/03/28 01:54:43;;;;;;;2.13;0.77;;;;;;;5.20;95.46;96416.56;4930808;29;20054;-65
2024/03/28 01:57:11;;;;;;;1.42;0.70;;;;;;;5.20;95.09;96419.31;4927609;29;20069;-64
2024/03/28 01:59:39;;;;;;;4.07;0.60;;;;;;;5.19;95.08;96417.00;4920098;29;20067;-66
2024/03/28 02:02:07;;;;;;;6.15;0.43;;;;;;;5.14;95.39;96404.53;4933674;29;20059;-66
2024/03/28 02:04:36;;;;;;;4.22;1.02;;;;;;;5.07;95.35;96423.03;4935261;29;20051;-65
2024/03/28 02:07:02;;;;;;;6.18;0.90;;;;;;;5.04;95.64;96430.13;4934903;29;20115;-67
2024/03/28 02:09:29;;;;;;;5.28;0.80;;;;;;;5.01;95.64;96430.94;4934674;29;20536;-65
2024/03/28 02:11:59;;;;;;;4.88;0.70;;;;;;;4.99;95.94;96430.59;4922529;29;20054;-65
2024/03/28 02:14:25;;;;;;;2.67;0.50;;;;;;;4.98;96.43;96426.28;4934562;29;20051;-66
2024/03/28 02:16:51;;;;;;;1.52;0.57;;;;;;;4.97;96.65;96419.28;4933875;29;20493;-66
2024/03/28 02:19:17;;;;;;;5.53;0.68;;;;;;;4.96;96.45;96422.41;4933239;28;20058;-65
2024/03/28 02:21:46;;;;;;;3.22;0.88;;;;;;;4.90;96.50;96417.41;4934194;29;20051;-65
2024/03/28 02:24:13;;;;;;;1.40;0.50;;;;;;;4.88;96.65;96430.75;4933321;29;20047;-65
2024/03/28 02:26:40;;;;;;;2.38;0.47;;;;;;;4.86;96.88;96427.66;4934145;29;20072;-66
2024/03/28 02:29:06;;;;;;;2.13;0.60;;;;;;;4.84;96.99;96416.31;4932850;29;20524;-64
2024/03/28 02:31:32;;;;;;;5.95;0.75;;;;;;;4.85;97.42;96422.56;4932364;29;20058;-65
2024/03/28 02:33:58;;;;;;;1.58;0.80;;;;;;;4.84;97.15;96415.56;4933288;29;20474;-65
2024/03/28 02:36:25;;;;;;;5.55;1.67;;;;;;;4.83;97.32;96414.78;4933910;29;20133;-66
2024/03/28 02:38:52;;;;;;;2.15;0.52;;;;;;;4.83;97.38;96403.81;4933795;29;20470;-65
2024/03/28 02:41:20;;;;;;;2.08;0.55;;;;;;;4.85;97.88;96411.59;4943423;29;20082;-65
2024/03/28 02:43:47;;;;;;;4.88;0.90;;;;;;;4.86;98.07;96396.72;4933669;29;20066;-64
2024/03/28 02:46:13;;;;;;;1.95;0.60;;;;;;;4.89;98.18;96390.44;4931816;29;20043;-64
2024/03/28 02:48:40;;;;;;;3.67;0.45;;;;;;;4.89;98.02;96385.72;4931442;29;20044;-64
2024/03/28 02:51:07;;;;;;;2.97;0.60;;;;;;;4.87;98.43;96387.31;4936619;29;20047;-64
2024/03/28 02:53:33;;;;;;;2.58;0.52;;;;;;;4.87;98.37;96382.59;4935347;29;20050;-65
2024/03/28 02:55:59;;;;;;;1.67;1.15;;;;;;;4.87;98.64;96374.38;4935064;29;20055;-64
2024/03/28 02:58:26;;;;;;;4.65;0.70;;;;;;;4.86;98.73;96374.81;4933666;28;20062;-64
2024/03/28 03:00:53;;;;;;;2.05;0.40;;;;;;;4.85;98.21;96378.72;5038191;23;20228;-64
2024/03/28 03:03:19;;;;;;;5.22;0.68;;;;;;;4.82;98.61;96372.09;4954464;28;20055;-64
2024/03/28 03:05:48;;;;;;;1.90;0.60;;;;;;;4.81;98.91;96386.22;4969416;28;20061;-64
2024/03/28 03:08:15;;;;;;;2.17;0.45;;;;;;;4.81;98.98;96388.97;4962544;28;20135;-64
2024/03/28 03:10:41;;;;;;;3.83;0.60;;;;;;;4.77;98.90;96385.50;4965748;28;20050;-64
2024/03/28 03:13:07;;;;;;;5.93;0.68;;;;;;;4.74;98.92;96378.88;4956184;28;20424;-65
2024/03/28 03:15:34;;;;;;;2.38;0.50;;;;;;;4.74;99.10;96380.84;4962083;28;20051;-65
2024/03/28 03:18:00;;;;;;;1.65;0.60;;;;;;;4.73;99.13;96382.81;4960189;28;20047;-65
2024/03/28 03:20:26;;;;;;;0.85;0.28;;;;;;;4.74;99.40;96373.41;4954013;28;20062;-65
2024/03/28 03:23:04;;;;;;;6.47;1.13;;;;;;;4.73;99.56;96382.03;4963256;28;20058;-65
2024/03/28 03:25:49;;;;;;;1.63;1.38;;;;;;;4.72;99.52;96372.25;4960036;28;20057;-64
2024/03/28 03:36:30;;;;;;;6.00;1.67;;;;;;;4.68;99.55;96374.28;4957780;28;20042;-65
2024/03/28 03:38:56;;;;;;;3.47;1.52;;;;;;;4.69;99.80;96375.81;4963866;28;20073;-65
2024/03/28 03:41:22;;;;;;;3.33;0.75;;;;;;;4.68;99.95;96380.53;4967480;28;20057;-67
2024/03/28 03:43:48;;;;;;;5.95;0.93;;;;;;;4.68;99.76;96374.28;4955668;28;20051;-65
2024/03/28 03:46:15;;;;;;;6.28;0.70;;;;;;;4.67;99.97;96378.22;4953196;28;20058;-66
2024/03/28 03:48:41;;;;;;;3.22;0.82;;;;;;;4.66;100.00;96382.16;4955801;28;20059;-65
2024/03/28 03:51:08;;;;;;;3.92;0.70;;;;;;;4.66;100.00;96380.16;4963508;28;20042;-66
2024/03/28 03:53:35;;;;;;;6.80;1.10;;;;;;;4.67;100.00;96378.22;4959714;28;20129;-66
2024/03/28 03:56:01;;;;;;;3.67;1.08;;;;;;;4.69;100.00;96378.56;4953337;28;20053;-66
2024/03/28 03:58:28;;;;;;;2.92;0.60;;;;;;;4.70;100.00;96380.13;4962718;28;20061;-66
2024/03/28 04:00:54;;;;;;;4.55;0.50;;;;;;;4.68;100.00;96383.28;4956658;28;20049;-66
2024/03/28 04:03:20;;;;;;;1.60;0.52;;;;;;;4.66;100.00;96373.94;4968272;28;20046;-66
2024/03/28 04:05:48;;;;;;;1.83;0.65;;;;;;;4.65;100.00;96380.59;4956298;28;20046;-66
2024/03/28 04:08:14;;;;;;;3.97;0.90;;;;;;;4.64;100.00;96374.31;4951862;28;20440;-66
2024/03/28 04:10:41;;;;;;;5.38;1.73;;;;;;;4.63;100.00;96366.53;4969521;28;20039;-66
2024/03/28 04:13:07;;;;;;;4.07;1.55;;;;;;;4.64;100.00;96365.31;4956467;28;20054;-65
2024/03/28 04:15:33;;;;;;;1.58;0.45;;;;;;;4.64;100.00;96377.06;4953470;28;20080;-66
2024/03/28 04:17:59;;;;;;;3.53;0.80;;;;;;;4.63;100.00;96369.28;4958467;28;20059;-65
2024/03/28 04:20:26;;;;;;;1.85;1.20;;;;;;;4.61;100.00;96368.88;4954907;28;20062;-65
2024/03/28 04:22:52;;;;;;;1.67;0.73;;;;;;;4.60;100.00;96361.88;4949915;28;20047;-66
2024/03/28 04:25:18;;;;;;;3.67;0.70;;;;;;;4.59;100.00;96368.53;4957491;28;20059;-65
2024/03/28 04:27:44;;;;;;;3.05;0.88;;;;;;;4.59;100.00;96355.63;4952697;28;20055;-65
2024/03/28 04:30:11;;;;;;;1.67;0.63;;;;;;;4.58;100.00;96359.53;4957706;28;20046;-65
2024/03/28 04:32:37;;;;;;;8.60;1.17;;;;;;;4.61;100.00;96363.41;4962609;28;20058;-65
2024/03/28 04:35:04;;;;;;;3.13;0.35;;;;;;;4.61;100.00;96346.97;4958818;28;20043;-65
2024/03/28 04:37:30;;;;;;;3.83;0.80;;;;;;;4.60;100.00;96350.91;4949371;28;20051;-66
2024/03/28 04:39:56;;;;;;;2.58;0.85;;;;;;;4.61;100.00;96344.25;4976947;28;20058;-65
2024/03/28 04:42:23;;;;;;;3.70;0.80;;;;;;;4.63;100.00;96341.88;4956881;28;20047;-66
2024/03/28 04:44:49;;;;;;;3.03;0.73;;;;;;;4.65;100.00;96348.50;4960767;28;20046;-65
2024/03/28 04:47:15;;;;;;;2.30;0.73;;;;;;;4.65;100.00;96353.97;4961400;28;20527;-66
2024/03/28 04:49:43;;;;;;;3.45;0.90;;;;;;;4.65;100.00;96345.75;4955924;28;20047;-66
2024/03/28 04:52:09;;;;;;;6.35;1.40;;;;;;;4.67;100.00;96350.81;4948862;28;20394;-65
2024/03/28 04:54:35;;;;;;;4.57;1.27;;;;;;;4.67;100.00;96348.84;4949430;28;20440;-66
2024/03/28 04:57:02;;;;;;;1.60;1.33;;;;;;;4.67;100.00;96353.56;4952499;28;20856;-66
2024/03/28 04:59:28;;;;;;;2.95;0.90;;;;;;;4.66;100.00;96343.81;4962319;28;20038;-66
2024/03/28 05:01:55;;;;;;;2.35;0.80;;;;;;;4.65;100.00;96344.97;4951262;28;20055;-64
2024/03/28 05:04:22;;;;;;;2.22;0.77;;;;;;;4.65;100.00;96353.19;4952845;28;20051;-67
2024/03/28 05:06:51;;;;;;;2.80;0.80;;;;;;;4.65;100.00;96334.03;4952581;28;20180;-65
2024/03/28 05:09:19;;;;;;;0.65;0.30;;;;;;;4.65;100.00;96336.75;4958572;28;20061;-65
2024/03/28 05:11:45;;;;;;;2.72;0.80;;;;;;;4.66;100.00;96338.31;4954682;28;20048;-64
2024/03/28 05:14:12;;;;;;;2.53;0.73;;;;;;;4.67;100.00;96337.91;4948539;28;20125;-65
2024/03/28 05:16:38;;;;;;;2.05;0.50;;;;;;;4.66;100.00;96324.63;4958311;28;20054;-65
2024/03/28 05:19:05;;;;;;;3.05;0.57;;;;;;;4.66;100.00;96332.84;4959430;28;20050;-67
2024/03/28 05:21:32;;;;;;;2.35;0.75;;;;;;;4.64;100.00;96330.50;4953433;28;20137;-67
2024/03/28 05:23:58;;;;;;;2.05;0.45;;;;;;;4.64;100.00;96330.50;4951347;28;20054;-67
2024/03/28 05:26:25;;;;;;;2.08;0.30;;;;;;;4.65;100.00;96317.59;4959447;28;20062;-66
2024/03/28 05:28:51;;;;;;;3.45;0.50;;;;;;;4.65;100.00;96315.63;4958884;28;20058;-66
2024/03/28 05:31:18;;;;;;;4.85;0.50;;;;;;;4.66;100.00;96316.41;4966120;28;20053;-65
2024/03/28 05:33:44;;;;;;;6.05;0.32;;;;;;;4.67;100.00;96301.50;4959223;28;20062;-65
2024/03/28 05:36:13;;;;;;;1.02;0.68;;;;;;;4.67;100.00;96307.00;4965699;28;20050;-65
2024/03/28 05:38:39;;;;;;;1.35;0.70;;;;;;;4.69;100.00;96299.13;4956011;28;20540;-65
2024/03/28 05:41:06;;;;;;;1.02;0.52;;;;;;;4.69;100.00;96294.44;4953137;28;20069;-64
2024/03/28 05:43:32;;;;;;;1.40;0.70;;;;;;;4.71;100.00;96292.03;4962318;28;20817;-65
2024/03/28 05:45:58;;;;;;;2.33;0.60;;;;;;;4.72;100.00;96298.28;4948327;28;20039;-64
2024/03/28 05:48:24;;;;;;;1.55;0.63;;;;;;;4.71;100.00;96294.78;4954153;28;20053;-65
2024/03/28 05:50:50;;;;;;;1.67;0.75;;;;;;;4.71;100.00;96300.25;4954603;28;20055;-64
2024/03/28 05:53:18;;;;;;;4.88;2.83;;;;;;;4.72;100.00;96301.03;4958874;28;20401;-64
2024/03/28 05:55:44;;;;;;;2.28;0.77;;;;;;;4.73;100.00;96299.84;4950748;28;20035;-64
2024/03/28 05:58:11;;;;;;;2.60;0.70;;;;;;;4.72;100.00;96287.34;4954475;28;20054;-64
2024/03/28 06:00:37;;;;;;;1.85;0.65;;;;;;;4.71;100.00;96281.09;4952601;28;20060;-64
2024/03/28 06:03:03;;;;;;;2.03;0.85;;;;;;;4.73;100.00;96278.72;4953877;28;20047;-65
2024/03/28 06:05:31;;;;;;;0.88;0.63;;;;;;;4.72;100.00;96279.13;4957220;28;20051;-64
2024/03/28 06:07:58;;;;;;;1.95;0.60;;;;;;;4.71;100.00;96280.34;4951447;28;20050;-64
2024/03/28 06:10:24;;;;;;;2.50;0.80;;;;;;;4.67;100.00;96285.06;4958123;28;20073;-64
2024/03/28 06:12:50;;;;;;;3.22;0.82;;;;;;;4.69;100.00;96282.69;4949952;28;20058;-64
2024/03/28 06:15:18;;;;;;;3.08;0.90;;;;;;;4.70;100.00;96285.03;4951675;28;20081;-64
2024/03/28 06:17:44;;;;;;;3.70;1.00;;;;;;;4.69;100.00;96288.94;4950361;28;20051;-64
2024/03/28 06:20:11;;;;;;;5.05;1.08;;;;;;;4.68;100.00;96286.63;4975640;28;20053;-64
2024/03/28 06:22:38;;;;;;;5.47;1.67;;;;;;;4.71;100.00;96288.56;4960472;28;20408;-64
2024/03/28 06:25:06;;;;;;;6.28;1.30;;;;;;;4.71;100.00;96289.31;4955154;28;20075;-64
2024/03/28 06:27:32;;;;;;;2.33;1.08;;;;;;;4.70;100.00;96285.03;4957469;28;20058;-65
2024/03/28 06:29:58;;;;;;;2.10;1.23;;;;;;;4.69;100.00;96288.94;4957261;28;20045;-64
2024/03/28 06:32:24;;;;;;;2.20;1.20;;;;;;;4.71;100.00;96289.31;4952400;28;20050;-65
2024/03/28 06:34:58;;;;;;;3.50;1.25;;;;;;;4.73;100.00;96299.84;4950108;28;20051;-64
2024/03/28 06:37:25;;;;;;;1.15;1.00;;;;;;;4.74;100.00;96295.91;4963195;28;20043;-64
2024/03/28 06:39:51;;;;;;;6.18;1.17;;;;;;;4.75;100.00;96283.78;4950614;28;20524;-64
2024/03/28 06:42:17;;;;;;;2.25;1.00;;;;;;;4.79;100.00;96292.72;4948227;28;20043;-64
2024/03/28 06:44:48;;;;;;;2.30;1.55;;;;;;;4.79;100.00;96293.47;4957467;28;20051;-64
2024/03/28 06:47:15;;;;;;;2.17;1.40;;;;;;;4.80;100.00;96294.25;4960733;28;20047;-64
2024/03/28 06:49:41;;;;;;;2.03;1.27;;;;;;;4.79;100.00;96288.00;4953768;28;20047;-64
2024/03/28 06:52:08;;;;;;;3.85;1.45;;;;;;;4.80;100.00;96286.81;4971015;28;20046;-64
2024/03/28 06:54:34;;;;;;;2.85;1.40;;;;;;;4.81;100.00;96280.16;4957716;28;20062;-64
2024/03/28 06:57:00;;;;;;;2.88;1.23;;;;;;;4.82;100.00;96280.91;4953321;28;20897;-64
2024/03/28 06:59:27;;;;;;;0.95;0.75;;;;;;;4.83;100.00;96275.03;4937667;28;20059;-64
2024/03/28 07:01:53;;;;;;;1.23;0.85;;;;;;;4.88;100.00;96273.78;4958080;28;20504;-64
2024/03/28 07:04:20;;;;;;;0.65;0.65;;;;;;;4.89;100.00;96275.34;4955551;28;20046;-64
2024/03/28 07:06:46;;;;;;;1.73;1.23;;;;;;;4.89;100.00;96276.13;4959956;28;20058;-64
2024/03/28 07:09:12;;;;;;;2.25;1.00;;;;;;;4.91;100.00;96275.69;4952380;28;20039;-64
2024/03/28 07:11:39;;;;;;;1.45;0.95;;;;;;;4.92;100.00;96266.28;4959155;28;20058;-64
2024/03/28 07:14:07;;;;;;;2.70;1.10;;;;;;;4.92;100.00;96263.56;4953875;28;20047;-64
2024/03/28 07:16:33;;;;;;;3.33;1.45;;;;;;;4.89;100.00;96264.38;4964574;28;20054;-64
2024/03/28 07:19:01;;;;;;;5.38;2.28;;;;;;;4.91;100.00;96270.22;4963937;28;20061;-64
2024/03/28 07:21:27;;;;;;;5.88;2.80;;;;;;;4.91;100.00;96262.00;4957694;28;20436;-64
2024/03/28 07:23:54;;;;;;;3.30;1.10;;;;;;;4.92;100.00;96264.31;4958244;28;20058;-64
2024/03/28 07:26:21;;;;;;;1.05;0.90;;;;;;;4.93;100.00;96268.59;4966518;28;20058;-63
2024/03/28 07:28:47;;;;;;;1.00;0.73;;;;;;;4.93;100.00;96246.69;4950355;28;20094;-63
2024/03/28 07:31:13;;;;;;;3.83;1.20;;;;;;;4.95;100.00;96257.22;4953783;28;20506;-64
2024/03/28 07:33:40;;;;;;;3.35;1.40;;;;;;;4.98;100.00;96266.59;4953674;28;20062;-65
2024/03/28 07:36:06;;;;;;;2.40;0.80;;;;;;;5.02;100.00;96257.09;4956133;28;20038;-63
2024/03/28 07:38:32;;;;;;;3.00;1.27;;;;;;;5.06;100.00;96246.84;4955972;28;20055;-63
2024/03/28 07:40:59;;;;;;;2.20;1.40;;;;;;;5.11;100.00;96232.66;4953316;28;20050;-63
2024/03/28 07:43:26;;;;;;;3.75;1.90;;;;;;;5.15;100.00;96227.91;4958473;28;20054;-63
2024/03/28 07:46:00;;;;;;;2.65;1.90;;;;;;;5.20;100.00;96219.19;4954591;28;20058;-63
2024/03/28 07:48:26;;;;;;;2.55;2.08;;;;;;;5.22;100.00;96238.72;4960670;28;20059;-64
2024/03/28 07:51:02;;;;;;;3.97;1.80;;;;;;;5.27;100.00;96248.47;4967221;28;20055;-63
2024/03/28 07:53:32;;;;;;;7.95;1.88;;;;;;;5.30;100.00;96259.34;4951576;28;20046;-64
2024/03/28 07:55:59;;;;;;;3.63;2.22;;;;;;;5.32;100.00;96256.94;4956664;28;20043;-63
2024/03/28 07:58:26;;;;;;;5.53;1.90;;;;;;;5.32;100.00;96237.75;4951205;28;20050;-65
2024/03/28 08:01:01;;;;;;;3.53;2.20;;;;;;;5.33;100.00;96244.81;4948978;29;20059;-64
2024/03/28 08:03:27;;;;;;;3.60;2.47;;;;;;;5.34;100.00;96251.06;4949100;28;20043;-63
2024/03/28 08:05:54;;;;;;;2.80;1.88;;;;;;;5.38;100.00;96258.03;4950057;28;20062;-64
2024/03/28 08:08:20;;;;;;;4.40;2.13;;;;;;;5.41;100.00;96251.69;4951569;28;20057;-65
2024/03/28 08:10:48;;;;;;;1.63;1.40;;;;;;;5.45;100.00;96243.41;4978593;28;20057;-64
2024/03/28 08:13:14;;;;;;;3.60;1.40;;;;;;;5.45;100.00;96241.41;4955363;28;20687;-64
2024/03/28 08:15:40;;;;;;;2.03;1.35;;;;;;;5.46;100.00;96242.97;4957498;28;20050;-64
2024/03/28 08:18:07;;;;;;;1.80;0.73;;;;;;;5.47;100.00;96236.31;4952548;28;20047;-64
2024/03/28 08:20:33;;;;;;;2.53;1.33;;;;;;;5.51;100.00;96237.00;4964353;28;20496;-64
2024/03/28 08:22:59;;;;;;;4.60;1.73;;;;;;;5.59;100.00;96228.66;4951584;28;20043;-65
2024/03/28 08:25:25;;;;;;;2.50;1.90;;;;;;;5.69;100.00;96227.66;4948506;28;20054;-65
2024/03/28 08:27:52;;;;;;;3.20;1.40;;;;;;;5.79;100.00;96226.66;4951134;28;20043;-64
2024/03/28 08:30:19;;;;;;;1.65;1.00;;;;;;;5.83;100.00;96217.16;4950854;28;20444;-65
2024/03/28 08:32:45;;;;;;;1.67;0.75;;;;;;;5.86;100.00;96213.59;4952060;28;20053;-64
2024/03/28 08:35:13;;;;;;;2.28;0.82;;;;;;;5.94;100.00;96227.94;4950867;28;20084;-64
2024/03/28 08:37:40;;;;;;;5.05;0.90;;;;;;;6.01;100.00;96222.31;4951175;28;20050;-64
2024/03/28 08:40:09;;;;;;;1.00;0.85;;;;;;;6.10;100.00;96230.75;4948428;29;20051;-64
2024/03/28 08:42:36;;;;;;;3.88;1.20;;;;;;;6.16;100.00;96229.03;4948566;29;20640;-64
2024/03/28 08:45:03;;;;;;;1.13;1.02;;;;;;;6.20;100.00;96224.25;4945567;28;20860;-64
2024/03/28 08:47:29;;;;;;;2.83;1.40;;;;;;;6.24;100.00;96224.16;4948274;29;20507;-63
2024/03/28 08:49:56;;;;;;;6.63;2.08;;;;;;;6.27;100.00;96228.81;4940754;29;20051;-64
2024/03/28 08:52:22;;;;;;;4.88;2.53;;;;;;;6.32;100.00;96223.59;4965691;28;20059;-64
2024/03/28 08:54:48;;;;;;;3.90;1.77;;;;;;;6.41;100.00;96228.47;4951146;28;20524;-64
2024/03/28 08:57:15;;;;;;;3.85;1.70;;;;;;;6.55;100.00;96223.44;4951020;28;20043;-64
2024/03/28 08:59:42;;;;;;;2.15;1.55;;;;;;;6.68;100.00;96227.06;4951172;28;20047;-64
2024/03/28 09:02:10;;;;;;;5.10;1.92;;;;;;;6.83;100.00;96219.22;4950854;28;20055;-64
2024/03/28 09:04:36;;;;;;;4.85;1.52;;;;;;;7.05;100.00;96227.72;4950943;28;20050;-64
2024/03/28 09:07:03;;;;;;;2.25;1.23;;;;;;;7.39;100.00;96235.50;4950725;28;20731;-65
2024/03/28 09:09:29;;;;;;;1.30;1.20;;;;;;;7.72;100.00;96237.72;4950629;28;20054;-64
2024/03/28 09:11:57;;;;;;;2.20;1.13;;;;;;;7.92;100.00;96238.31;4950036;28;20416;-64
2024/03/28 09:14:23;;;;;;;2.25;1.50;;;;;;;8.00;100.00;96247.13;4959497;28;20058;-65
2024/03/28 09:16:50;;;;;;;1.88;0.90;;;;;;;8.05;100.00;96246.59;4947754;29;20054;-63
2024/03/28 09:19:17;;;;;;;5.07;0.85;;;;;;;8.06;100.00;96244.63;4960109;28;20050;-62
2024/03/28 09:21:44;;;;;;;2.80;0.80;;;;;;;7.93;100.00;96242.63;4935204;28;20642;-65
2024/03/28 09:24:10;;;;;;;0.75;0.70;;;;;;;7.86;100.00;96237.28;4951198;28;20055;-64
2024/03/28 09:26:37;;;;;;;0.98;0.70;;;;;;;7.93;100.00;96236.34;4950434;28;20416;-62
2024/03/28 09:29:03;;;;;;;2.33;1.33;;;;;;;8.13;100.00;96239.66;4948389;28;20524;-65
2024/03/28 09:31:29;;;;;;;1.33;0.60;;;;;;;8.40;100.00;96242.03;4950710;28;20058;-64
2024/03/28 09:33:55;;;;;;;0.68;0.45;;;;;;;8.68;100.00;96227.41;4947523;28;20055;-65
2024/03/28 09:36:22;;;;;;;2.50;0.38;;;;;;;9.00;100.00;96232.63;4949828;28;20062;-65
2024/03/28 09:38:50;;;;;;;0.77;0.43;;;;;;;9.42;100.00;96235.19;4947514;28;20473;-65
2024/03/28 09:41:26;;;;;;;1.15;0.60;;;;;;;10.31;100.00;96233.56;4947540;29;20520;-64
2024/03/28 09:44:20;;;;;;;1.67;0.60;;;;;;;11.80;99.83;96239.34;4947176;28;20050;-64
2024/03/28 09:46:52;;;;;;;2.17;0.43;;;;;;;13.16;97.91;96238.97;4941943;28;20059;-64
2024/03/28 09:49:23;;;;;;;0.38;0.38;;;;;;;14.26;95.75;96239.69;4950655;28;20039;-65
2024/03/28 09:51:52;;;;;;;1.02;0.30;;;;;;;14.84;94.60;96236.91;4948967;28;20059;-65
2024/03/28 09:54:18;;;;;;;1.58;0.30;;;;;;;14.73;93.52;96250.66;4951371;28;20059;-64
2024/03/28 09:56:45;;;;;;;1.02;0.57;;;;;;;15.05;94.01;96258.00;4950185;28;20513;-65
2024/03/28 09:59:11;;;;;;;1.58;0.52;;;;;;;15.36;90.75;96256.66;4950969;28;20070;-62
2024/03/28 10:01:42;;;;;;;1.42;0.47;;;;;;;14.74;91.09;96257.75;4948105;28;20066;-62
2024/03/28 10:04:18;;;;;;;0.73;0.30;;;;;;;14.88;91.96;96254.19;4939992;28;20049;-62
2024/03/28 10:06:50;;;;;;;1.65;0.20;;;;;;;15.78;89.11;96270.94;4966578;28;20509;-62
2024/03/28 10:09:17;;;;;;;0.63;0.20;;;;;;;16.47;85.72;96264.34;4955508;28;20069;-63
2024/03/28 10:11:44;;;;;;;1.33;0.25;;;;;;;17.01;82.45;96271.75;4949880;28;20055;-63
2024/03/28 10:14:26;;;;;;;0.10;0.10;;;;;;;17.08;82.10;96278.16;4958927;28;20059;-63
2024/03/28 10:17:01;;;;;;;3.05;0.10;;;;;;;16.02;81.13;96271.50;4950870;28;20512;-63
2024/03/28 10:19:29;;;;;;;0.35;0.10;;;;;;;15.05;82.06;96266.34;4934032;28;20535;-64
2024/03/28 10:22:12;;;;;;;1.33;0.63;;;;;;;14.79;83.64;96262.66;4953519;28;20035;-63
2024/03/28 10:24:48;;;;;;;1.27;0.10;;;;;;;13.89;81.62;96267.81;4951250;29;20058;-64
2024/03/28 10:27:18;;;;;;;0.28;0.20;;;;;;;14.02;82.02;96279.47;4946736;28;20055;-63
2024/03/28 10:29:53;;;;;;;1.15;0.10;;;;;;;14.91;78.99;96272.72;4953812;28;20050;-63
2024/03/28 10:32:19;;;;;;;0.38;0.20;;;;;;;15.58;75.27;96279.28;4951918;28;20051;-65
2024/03/28 10:34:50;;;;;;;2.78;0.20;;;;;;;16.26;73.42;96280.38;4939939;29;20063;-64
2024/03/28 10:37:17;;;;;;;1.38;0.10;;;;;;;16.75;70.67;96287.78;4964281;28;20662;-64
2024/03/28 10:39:45;;;;;;;0.40;0.30;;;;;;;16.89;68.68;96291.72;4950518;29;20059;-64
2024/03/28 10:42:13;;;;;;;0.40;0.13;;;;;;;16.96;67.68;96285.66;4964004;28;20054;-64
2024/03/28 10:44:45;;;;;;;3.40;0.32;;;;;;;17.18;66.30;96283.06;4953695;28;20058;-64
2024/03/28 10:47:13;;;;;;;0.22;0.10;;;;;;;17.38;64.94;96285.72;4937385;28;20058;-63
2024/03/28 10:49:53;;;;;;;0.10;0.10;;;;;;;17.38;64.51;96290.53;4950370;29;20055;-64
2024/03/28 10:52:40;;;;;;;2.63;0.20;;;;;;;17.37;63.90;96295.38;4983704;28;20066;-64
2024/03/28 10:55:11;;;;;;;1.17;0.40;;;;;;;17.24;62.83;96288.66;4953462;28;20062;-64
2024/03/28 10:57:41;;;;;;;1.00;0.30;;;;;;;16.89;62.73;96294.50;4958768;28;20101;-64
2024/03/28 11:00:09;;;;;;;0.38;0.20;;;;;;;16.60;62.86;96294.75;4952425;28;20780;-64
2024/03/28 11:02:37;;;;;;;3.20;0.75;;;;;;;16.17;63.37;96291.72;4952404;28;20063;-64
2024/03/28 11:05:08;;;;;;;2.60;0.45;;;;;;;15.72;64.53;96290.41;4952848;28;20058;-65
2024/03/28 11:07:35;;;;;;;3.55;0.50;;;;;;;15.24;65.83;96287.16;4952817;28;20046;-64
2024/03/28 11:10:01;;;;;;;0.40;0.30;;;;;;;14.80;66.79;96300.38;4955924;28;20460;-64
2024/03/28 11:12:28;;;;;;;1.70;0.50;;;;;;;14.26;67.89;96287.75;4941004;29;20051;-64
2024/03/28 11:14:56;;;;;;;1.55;0.43;;;;;;;13.54;69.07;96285.50;4966874;28;20038;-64
2024/03/28 11:17:23;;;;;;;1.38;0.40;;;;;;;12.97;70.39;96281.94;4952533;28;20747;-66
2024/03/28 11:20:03;;;;;;;3.22;0.60;;;;;;;12.68;71.66;96288.06;4969188;28;20051;-64
2024/03/28 11:22:30;;;;;;;1.13;0.38;;;;;;;12.47;71.95;96281.47;4969209;28;20062;-64
2024/03/28 11:24:56;;;;;;;1.45;0.50;;;;;;;12.23;72.23;96280.59;4952179;28;20047;-64
2024/03/28 11:27:23;;;;;;;1.85;0.40;;;;;;;12.11;72.47;96278.75;4962284;28;20055;-65
2024/03/28 11:30:04;;;;;;;2.05;0.40;;;;;;;11.86;72.55;96268.75;4950369;28;20062;-64
2024/03/28 11:32:30;;;;;;;2.80;0.85;;;;;;;11.46;72.81;96279.91;4952300;28;20877;-64
2024/03/28 11:35:12;;;;;;;2.90;0.60;;;;;;;11.01;73.47;96274.28;4952924;28;20512;-63
2024/03/28 11:37:39;;;;;;;2.90;0.55;;;;;;;10.61;73.89;96276.25;4952764;28;20496;-63
2024/03/28 11:40:08;;;;;;;2.92;0.77;;;;;;;10.30;74.51;96279.00;4952408;28;20637;-64
2024/03/28 11:42:34;;;;;;;3.67;1.70;;;;;;;10.04;74.65;96278.34;4951853;28;20505;-64
2024/03/28 11:45:05;;;;;;;3.95;0.35;;;;;;;9.83;74.47;96268.06;4952812;28;20058;-63
2024/03/28 11:47:31;;;;;;;2.67;0.30;;;;;;;9.77;74.91;96270.63;4951740;28;20050;-64